Time;durP1;ratioP1;P1;durP2;ratioP2;P2;SDS_P1;SDS_P2;PMS_P1;PMS_P2;Temp;Humidity;BMP_temperature;BMP_pressure;BME280_temperature;BME280_humidity;BME280_pressure;Samples;Min_cycle;Max_cycle;Signal;HPM_P1;HPM_P2
2022/05/12 00:02:11;;;;;;;5.20;1.92;;;12.10;99.90;;;;;;5072002;28;20478;-68
2022/05/12 00:04:38;;;;;;;6.70;1.80;;;12.00;99.90;;;;;;5072378;28;20034;-69
2022/05/12 00:07:04;;;;;;;5.50;1.90;;;12.00;99.90;;;;;;5072112;28;20036;-68
2022/05/12 00:09:30;;;;;;;6.90;1.83;;;12.00;99.90;;;;;;5070755;28;20043;-69
2022/05/12 00:11:56;;;;;;;3.35;1.48;;;11.90;99.90;;;;;;5071874;28;20036;-68
2022/05/12 00:14:23;;;;;;;6.57;1.55;;;11.90;99.90;;;;;;5072013;28;20051;-69
2022/05/12 00:16:48;;;;;;;5.43;1.83;;;11.90;99.90;;;;;;5072176;28;20453;-69
2022/05/12 00:19:14;;;;;;;3.58;1.20;;;11.90;99.90;;;;;;5072374;28;20040;-68
2022/05/12 00:21:39;;;;;;;3.70;1.10;;;11.80;99.90;;;;;;5071940;28;20037;-68
2022/05/12 00:24:05;;;;;;;4.35;1.17;;;11.80;99.90;;;;;;5072192;28;20119;-68
2022/05/12 00:26:34;;;;;;;3.22;1.08;;;11.80;99.90;;;;;;5070633;28;20171;-69
2022/05/12 00:29:02;;;;;;;2.80;1.20;;;11.70;99.90;;;;;;5071875;28;20496;-69
2022/05/12 00:31:29;;;;;;;5.00;2.63;;;11.70;99.90;;;;;;5071851;28;20042;-68
2022/05/12 00:33:55;;;;;;;3.85;0.90;;;11.60;99.90;;;;;;5071992;28;20517;-68
2022/05/12 00:36:21;;;;;;;3.03;0.80;;;11.60;99.90;;;;;;5071890;28;20040;-68
2022/05/12 00:38:47;;;;;;;7.93;1.02;;;11.60;99.90;;;;;;5070645;28;20040;-68
2022/05/12 00:41:13;;;;;;;2.67;1.00;;;11.60;99.90;;;;;;5070541;28;20387;-68
2022/05/12 00:43:42;;;;;;;5.07;2.80;;;11.60;99.90;;;;;;5070346;28;20068;-68
2022/05/12 00:46:16;;;;;;;4.22;1.13;;;11.50;99.90;;;;;;5071792;28;20413;-68
2022/05/12 00:48:42;;;;;;;2.42;0.73;;;11.50;99.90;;;;;;5071818;28;20051;-68
2022/05/12 00:51:11;;;;;;;4.85;1.30;;;11.40;99.90;;;;;;5053121;28;20076;-68
2022/05/12 00:53:38;;;;;;;3.95;0.80;;;11.40;99.90;;;;;;5070677;28;20025;-68
2022/05/12 00:56:07;;;;;;;4.90;1.30;;;11.40;99.90;;;;;;5071512;28;20115;-68
2022/05/12 00:58:34;;;;;;;2.45;1.05;;;11.40;99.90;;;;;;5070247;28;20040;-68
2022/05/12 01:01:04;;;;;;;3.17;1.05;;;11.30;99.90;;;;;;5071448;28;20045;-68
2022/05/12 01:03:31;;;;;;;4.78;1.00;;;11.30;99.90;;;;;;5071508;28;20105;-68
2022/05/12 01:05:57;;;;;;;4.50;1.08;;;11.30;99.90;;;;;;5070403;28;20446;-68
2022/05/12 01:08:23;;;;;;;5.35;1.20;;;11.30;99.90;;;;;;5071470;28;20083;-68
2022/05/12 01:10:54;;;;;;;5.20;1.00;;;11.20;99.90;;;;;;5071049;28;20041;-68
2022/05/12 01:13:20;;;;;;;5.30;1.17;;;11.20;99.90;;;;;;5071621;28;20128;-68
2022/05/12 01:15:55;;;;;;;4.10;0.90;;;11.20;99.90;;;;;;5070119;28;20533;-68
2022/05/12 01:18:21;;;;;;;7.25;1.50;;;11.20;99.90;;;;;;5070414;28;20099;-68
2022/05/12 01:20:48;;;;;;;4.13;0.70;;;11.10;99.90;;;;;;5069879;28;20132;-68
2022/05/12 01:23:19;;;;;;;2.17;0.85;;;11.10;99.90;;;;;;5071298;28;20040;-68
2022/05/12 01:25:44;;;;;;;3.08;0.60;;;11.00;99.90;;;;;;5071297;28;20070;-68
2022/05/12 01:28:10;;;;;;;4.93;1.30;;;11.00;99.90;;;;;;5069991;28;20466;-68
2022/05/12 01:30:36;;;;;;;3.83;1.65;;;11.00;99.90;;;;;;5071070;28;20040;-68
2022/05/12 01:33:01;;;;;;;2.90;0.80;;;11.00;99.90;;;;;;5071260;28;20040;-68
2022/05/12 01:35:27;;;;;;;1.77;0.70;;;10.90;99.90;;;;;;5070193;28;20068;-68
2022/05/12 01:37:53;;;;;;;7.72;1.33;;;10.90;99.90;;;;;;5071091;28;20040;-68
2022/05/12 01:40:21;;;;;;;7.18;1.77;;;10.90;99.90;;;;;;5069602;28;20048;-68
2022/05/12 01:42:48;;;;;;;4.07;0.93;;;10.90;99.90;;;;;;5071293;28;20115;-68
2022/05/12 01:45:15;;;;;;;2.45;0.50;;;10.90;99.90;;;;;;5070114;28;20144;-68
2022/05/12 01:47:40;;;;;;;4.82;0.95;;;10.90;99.90;;;;;;5071120;28;20037;-68
2022/05/12 01:50:09;;;;;;;1.92;0.77;;;10.90;99.90;;;;;;5069516;28;20090;-68
2022/05/12 01:52:35;;;;;;;3.83;0.70;;;10.80;99.90;;;;;;5072036;28;20033;-68
2022/05/12 01:55:01;;;;;;;3.92;1.15;;;10.80;99.90;;;;;;5074889;28;20068;-68
2022/05/12 01:57:29;;;;;;;4.75;1.20;;;10.80;99.90;;;;;;5074742;28;20498;-68
2022/05/12 01:59:55;;;;;;;3.45;1.15;;;10.80;99.90;;;;;;5074463;28;20268;-68
2022/05/12 02:02:21;;;;;;;2.42;1.20;;;10.70;99.90;;;;;;5073362;28;20123;-68
2022/05/12 02:04:48;;;;;;;2.25;1.15;;;10.70;99.90;;;;;;5073458;28;20131;-68
2022/05/12 02:07:14;;;;;;;3.67;1.20;;;10.70;99.90;;;;;;5074352;28;20044;-68
2022/05/12 02:09:40;;;;;;;5.85;1.42;;;10.70;99.90;;;;;;5074449;28;20036;-68
2022/05/12 02:12:06;;;;;;;5.07;1.80;;;10.60;99.90;;;;;;5073044;28;20639;-68
2022/05/12 02:14:32;;;;;;;5.38;1.77;;;10.70;99.90;;;;;;5074445;28;20044;-68
2022/05/12 02:16:57;;;;;;;4.45;1.50;;;10.60;99.90;;;;;;5072963;28;20451;-68
2022/05/12 02:19:23;;;;;;;4.88;1.50;;;10.60;99.90;;;;;;5074223;28;20047;-68
2022/05/12 02:21:49;;;;;;;3.28;1.63;;;10.60;99.90;;;;;;5074124;28;20049;-68
2022/05/12 02:24:15;;;;;;;4.90;1.42;;;10.60;99.90;;;;;;5074257;28;20548;-68
2022/05/12 02:26:41;;;;;;;4.85;1.70;;;10.50;99.90;;;;;;5074172;28;20051;-68
2022/05/12 02:29:06;;;;;;;4.75;1.60;;;10.50;99.90;;;;;;5072867;28;20551;-68
2022/05/12 02:31:32;;;;;;;2.90;1.50;;;10.50;99.90;;;;;;5073707;28;20045;-68
2022/05/12 02:33:57;;;;;;;3.30;1.67;;;10.40;99.90;;;;;;5073963;28;20082;-68
2022/05/12 02:36:23;;;;;;;6.80;2.15;;;10.40;99.90;;;;;;5073921;28;20041;-68
2022/05/12 02:38:49;;;;;;;5.93;2.17;;;10.40;99.90;;;;;;5074058;28;20039;-68
2022/05/12 02:41:15;;;;;;;5.90;2.17;;;10.40;99.90;;;;;;5073673;28;20036;-68
2022/05/12 02:43:41;;;;;;;5.85;2.20;;;10.40;99.90;;;;;;5073754;28;20123;-68
2022/05/12 02:46:09;;;;;;;6.40;1.98;;;10.30;99.90;;;;;;5073693;28;20040;-68
2022/05/12 02:48:37;;;;;;;6.47;2.47;;;10.30;99.90;;;;;;5073630;28;20062;-68
2022/05/12 02:51:03;;;;;;;5.47;2.22;;;10.30;99.90;;;;;;5073568;28;20076;-68
2022/05/12 02:53:30;;;;;;;7.35;2.13;;;10.30;99.90;;;;;;5072338;28;20090;-68
2022/05/12 02:55:57;;;;;;;6.93;2.35;;;10.30;99.90;;;;;;5073509;28;20532;-69
2022/05/12 02:58:23;;;;;;;7.00;2.78;;;10.20;99.90;;;;;;5073521;28;20045;-68
2022/05/12 03:00:48;;;;;;;8.20;2.97;;;10.20;99.90;;;;;;5073342;28;20048;-68
2022/05/12 03:03:14;;;;;;;6.60;2.53;;;10.20;99.90;;;;;;5072313;28;20041;-68
2022/05/12 03:05:40;;;;;;;8.25;2.80;;;10.20;99.90;;;;;;5073416;28;20048;-68
2022/05/12 03:08:07;;;;;;;10.55;2.88;;;10.20;99.90;;;;;;5073605;28;20072;-67
2022/05/12 03:10:34;;;;;;;5.60;2.70;;;10.20;99.90;;;;;;5072751;28;20557;-67
2022/05/12 03:13:00;;;;;;;9.20;3.58;;;10.20;99.90;;;;;;5072316;28;20040;-67
2022/05/12 03:15:27;;;;;;;7.57;2.97;;;10.20;99.90;;;;;;5073302;28;20044;-67
2022/05/12 03:17:52;;;;;;;8.25;3.45;;;10.20;99.90;;;;;;5073036;28;20486;-67
2022/05/12 03:20:22;;;;;;;6.45;3.38;;;10.20;99.90;;;;;;5072993;28;20048;-67
2022/05/12 03:22:48;;;;;;;10.32;3.10;;;10.20;99.90;;;;;;5073244;28;20042;-67
2022/05/12 03:25:15;;;;;;;8.20;3.22;;;10.20;99.90;;;;;;5073084;28;20036;-68
2022/05/12 03:27:42;;;;;;;6.15;2.67;;;10.20;99.90;;;;;;5055071;28;20123;-68
2022/05/12 03:30:12;;;;;;;4.80;2.67;;;10.20;99.90;;;;;;5072612;28;20040;-67
2022/05/12 03:32:37;;;;;;;6.43;3.05;;;10.10;99.90;;;;;;5073262;28;20045;-67
2022/05/12 03:35:04;;;;;;;5.20;3.15;;;10.10;99.90;;;;;;5073150;28;20453;-67
2022/05/12 03:37:30;;;;;;;9.43;3.20;;;10.20;99.90;;;;;;5072941;28;20044;-67
2022/05/12 03:39:55;;;;;;;10.48;3.17;;;10.10;99.90;;;;;;5071580;28;20048;-67
2022/05/12 03:42:21;;;;;;;12.02;4.05;;;10.10;99.90;;;;;;5071456;28;20052;-67
2022/05/12 03:44:47;;;;;;;8.77;3.72;;;10.10;99.90;;;;;;5071343;28;20128;-67
2022/05/12 03:47:24;;;;;;;10.25;3.45;;;10.10;99.90;;;;;;5071212;28;20116;-67
2022/05/12 03:49:53;;;;;;;11.43;3.47;;;10.10;99.90;;;;;;5071187;28;20115;-67
2022/05/12 03:52:18;;;;;;;11.20;3.60;;;10.10;99.90;;;;;;5072350;28;20124;-67
2022/05/12 03:54:44;;;;;;;9.93;3.78;;;10.10;99.90;;;;;;5072402;28;20119;-68
2022/05/12 03:57:12;;;;;;;8.30;3.70;;;10.10;99.90;;;;;;5072143;28;20051;-67
2022/05/12 03:59:38;;;;;;;13.13;4.15;;;10.10;99.90;;;;;;5071056;28;20052;-67
2022/05/12 04:02:06;;;;;;;8.63;3.90;;;10.10;99.90;;;;;;5070665;28;20490;-67
2022/05/12 04:04:32;;;;;;;8.25;3.58;;;10.20;99.90;;;;;;5072344;28;20045;-67
2022/05/12 04:06:58;;;;;;;7.40;3.83;;;10.20;99.90;;;;;;5070925;28;20037;-67
2022/05/12 04:09:24;;;;;;;12.00;4.13;;;10.10;99.90;;;;;;5072114;28;20043;-67
2022/05/12 04:11:50;;;;;;;15.07;4.47;;;10.10;99.90;;;;;;5070357;28;20052;-67
2022/05/12 04:14:15;;;;;;;10.82;4.70;;;10.10;99.90;;;;;;5070638;28;20402;-68
2022/05/12 04:16:41;;;;;;;8.02;4.38;;;10.20;99.90;;;;;;5073287;28;20494;-68
2022/05/12 04:19:07;;;;;;;11.73;4.45;;;10.20;99.90;;;;;;5072365;28;20494;-68
2022/05/12 04:21:37;;;;;;;10.50;4.93;;;10.20;99.90;;;;;;5072488;28;20037;-67
2022/05/12 04:24:05;;;;;;;11.55;4.78;;;10.20;99.90;;;;;;5074530;28;20044;-67
2022/05/12 04:26:36;;;;;;;10.50;4.28;;;10.20;99.90;;;;;;5074499;28;20043;-67
2022/05/12 04:29:02;;;;;;;7.45;4.68;;;10.30;99.90;;;;;;5073230;28;20090;-67
2022/05/12 04:31:28;;;;;;;11.88;5.35;;;10.30;99.90;;;;;;5074264;28;20040;-67
2022/05/12 04:36:38;;;;;;;12.05;5.00;;;10.40;99.90;;;;;;5072056;28;20128;-70
2022/05/12 04:39:05;;;;;;;11.25;4.95;;;10.40;99.90;;;;;;5053911;28;20115;-69
2022/05/12 04:41:31;;;;;;;8.55;3.90;;;10.50;99.90;;;;;;5070518;28;20045;-69
2022/05/12 04:43:56;;;;;;;10.25;4.90;;;10.50;99.90;;;;;;5070693;28;20070;-69
2022/05/12 04:46:24;;;;;;;7.90;5.00;;;10.50;99.90;;;;;;5070315;28;20123;-69
2022/05/12 04:48:50;;;;;;;10.40;5.15;;;10.60;99.90;;;;;;5070428;28;20050;-69
2022/05/12 04:51:15;;;;;;;10.57;4.38;;;10.60;99.90;;;;;;5071328;28;20044;-69
2022/05/12 04:53:41;;;;;;;7.10;4.63;;;10.80;99.90;;;;;;5071493;28;20044;-69
2022/05/12 04:56:06;;;;;;;10.45;5.63;;;10.90;99.90;;;;;;5071691;28;20409;-69
2022/05/12 04:58:32;;;;;;;10.77;5.53;;;11.00;99.90;;;;;;5071684;28;20048;-68
2022/05/12 05:00:58;;;;;;;9.20;4.45;;;11.10;99.90;;;;;;5071326;28;20032;-68
2022/05/12 05:03:24;;;;;;;15.38;4.70;;;11.30;99.90;;;;;;5070284;28;20049;-68
2022/05/12 05:05:50;;;;;;;8.00;4.75;;;11.50;99.90;;;;;;5069992;28;20055;-68
2022/05/12 05:08:20;;;;;;;8.73;4.65;;;11.60;99.90;;;;;;5071273;28;20036;-67
2022/05/12 05:10:47;;;;;;;11.63;4.63;;;11.70;99.90;;;;;;5071450;28;20082;-68
2022/05/12 05:13:12;;;;;;;10.82;4.22;;;11.90;99.90;;;;;;5071550;28;20118;-68
2022/05/12 05:15:38;;;;;;;12.38;4.88;;;12.10;99.90;;;;;;5070048;28;20087;-68
2022/05/12 05:18:04;;;;;;;11.70;4.15;;;12.20;99.90;;;;;;5071321;28;20045;-68
2022/05/12 05:20:30;;;;;;;10.70;4.07;;;12.40;99.90;;;;;;5070922;28;20067;-68
2022/05/12 05:22:56;;;;;;;7.60;3.50;;;12.50;99.90;;;;;;5071478;28;20036;-68
2022/05/12 05:25:22;;;;;;;5.40;3.58;;;12.70;99.90;;;;;;5071487;28;20427;-68
2022/05/12 05:27:50;;;;;;;8.57;4.78;;;13.00;99.90;;;;;;5073995;28;20040;-70
2022/05/12 05:30:19;;;;;;;9.73;4.68;;;13.10;99.90;;;;;;5074949;28;20090;-69
2022/05/12 05:32:46;;;;;;;13.15;5.03;;;13.40;99.90;;;;;;5074091;28;20036;-68
2022/05/12 05:35:14;;;;;;;11.00;4.50;;;13.60;99.90;;;;;;5074985;28;20463;-68
2022/05/12 05:37:42;;;;;;;10.23;4.03;;;13.80;99.90;;;;;;5075081;28;20032;-67
2022/05/12 05:40:09;;;;;;;8.70;4.00;;;14.00;99.90;;;;;;5074830;28;20048;-68
2022/05/12 05:42:35;;;;;;;10.07;4.38;;;14.10;99.90;;;;;;5057338;28;20051;-69
2022/05/12 05:45:01;;;;;;;11.73;4.30;;;14.20;99.90;;;;;;5075013;28;20123;-69
2022/05/12 05:47:28;;;;;;;7.68;3.92;;;14.40;99.90;;;;;;5074730;28;20517;-69
2022/05/12 05:49:54;;;;;;;11.77;4.25;;;14.50;99.90;;;;;;5073462;28;20550;-69
2022/05/12 05:55:04;;;;;;;11.65;3.25;;;14.80;99.90;;;;;;5075022;28;20037;-69
2022/05/12 05:57:30;;;;;;;9.80;3.95;;;15.10;99.90;;;;;;5074749;28;20032;-68
2022/05/12 05:59:58;;;;;;;8.48;4.75;;;15.30;99.90;;;;;;5074543;28;20036;-69
2022/05/12 06:02:24;;;;;;;9.25;3.85;;;15.30;99.90;;;;;;5074627;28;20162;-69
2022/05/12 06:04:50;;;;;;;8.57;4.13;;;15.40;99.90;;;;;;5074898;28;20119;-71
2022/05/12 06:07:15;;;;;;;8.02;3.92;;;15.70;99.90;;;;;;5073094;28;20056;-69
2022/05/12 06:09:42;;;;;;;8.75;4.40;;;15.90;99.90;;;;;;5073063;28;20482;-69
2022/05/12 06:12:09;;;;;;;12.73;3.72;;;15.90;99.90;;;;;;5074274;28;20112;-69
2022/05/12 06:14:35;;;;;;;8.10;3.45;;;16.00;99.90;;;;;;5074311;28;20048;-69
2022/05/12 06:17:00;;;;;;;7.88;3.47;;;16.10;99.90;;;;;;5074183;28;20155;-69
2022/05/12 06:19:26;;;;;;;7.78;3.65;;;16.30;99.90;;;;;;5074194;28;20041;-69
2022/05/12 06:21:51;;;;;;;9.23;3.72;;;16.40;99.90;;;;;;5072624;28;20041;-70
2022/05/12 06:24:18;;;;;;;11.90;3.35;;;16.50;99.90;;;;;;5074275;28;20043;-70
2022/05/12 06:26:43;;;;;;;6.20;2.95;;;16.60;99.90;;;;;;5074184;28;20509;-70
2022/05/12 06:29:09;;;;;;;8.32;2.83;;;16.70;99.90;;;;;;5074065;28;20033;-70
2022/05/12 06:31:35;;;;;;;11.57;3.83;;;16.70;99.90;;;;;;5073701;28;20093;-71
2022/05/12 06:34:00;;;;;;;7.63;3.40;;;16.70;99.90;;;;;;5074214;28;20502;-70
2022/05/12 06:36:28;;;;;;;5.75;2.70;;;17.00;99.90;;;;;;5072952;28;20056;-71
2022/05/12 06:38:54;;;;;;;9.30;3.80;;;17.20;99.90;;;;;;5072724;28;20040;-70
2022/05/12 06:41:20;;;;;;;11.88;4.45;;;17.30;99.90;;;;;;5072504;28;20422;-71
2022/05/12 06:43:46;;;;;;;12.50;3.10;;;17.20;99.90;;;;;;5073991;28;20040;-71
2022/05/12 06:46:16;;;;;;;5.50;2.70;;;17.10;99.90;;;;;;5073627;28;20487;-70
2022/05/12 06:48:47;;;;;;;8.65;2.67;;;17.00;99.90;;;;;;5074038;28;20040;-71
2022/05/12 06:51:14;;;;;;;11.10;3.53;;;17.20;99.90;;;;;;5073466;28;20582;-71
2022/05/12 06:53:40;;;;;;;10.90;3.75;;;17.30;99.90;;;;;;5072417;28;20040;-71
2022/05/12 06:56:07;;;;;;;14.38;3.83;;;17.70;99.90;;;;;;5073472;28;20441;-71
2022/05/12 06:58:33;;;;;;;5.97;2.53;;;17.70;99.90;;;;;;5072263;28;20072;-71
2022/05/12 07:01:00;;;;;;;8.98;2.17;;;18.10;99.30;;;;;;5073403;28;20074;-71
2022/05/12 07:03:26;;;;;;;9.32;2.67;;;18.10;97.80;;;;;;5073448;28;20044;-71
2022/05/12 07:05:52;;;;;;;4.90;2.35;;;18.30;97.80;;;;;;5072176;28;20464;-70
2022/05/12 07:08:17;;;;;;;5.70;2.58;;;18.50;96.30;;;;;;5073496;28;20124;-70
2022/05/12 07:10:43;;;;;;;7.78;2.30;;;18.50;94.60;;;;;;5072958;28;20047;-70
2022/05/12 07:13:09;;;;;;;5.65;2.40;;;18.50;94.00;;;;;;5073153;28;20056;-71
2022/05/12 07:15:34;;;;;;;8.05;2.58;;;18.40;92.70;;;;;;5073443;28;20036;-71
2022/05/12 07:18:00;;;;;;;5.20;1.90;;;18.60;92.50;;;;;;5073326;28;20036;-71
2022/05/12 07:28:43;;;;;;;4.47;2.25;;;18.20;90.90;;;;;;5071697;28;20045;-70
2022/05/12 07:31:09;;;;;;;7.93;2.92;;;18.40;92.00;;;;;;5071293;28;20055;-70
2022/05/12 07:33:45;;;;;;;7.88;2.97;;;18.70;92.30;;;;;;5072835;28;20482;-69
2022/05/12 07:36:23;;;;;;;5.40;2.10;;;18.70;91.00;;;;;;5071403;28;20034;-69
2022/05/12 07:38:49;;;;;;;4.68;2.20;;;18.90;89.10;;;;;;5072918;28;20040;-69
2022/05/12 07:41:17;;;;;;;9.50;2.53;;;19.10;90.20;;;;;;5071406;28;20045;-69
2022/05/12 07:43:44;;;;;;;7.70;2.75;;;19.30;89.90;;;;;;5072642;28;20037;-69
2022/05/12 07:46:12;;;;;;;7.05;2.45;;;19.20;84.30;;;;;;5071295;28;20159;-69
2022/05/12 07:48:39;;;;;;;5.47;1.83;;;19.20;82.50;;;;;;5071365;28;20106;-70
2022/05/12 07:51:05;;;;;;;5.18;1.73;;;19.50;82.80;;;;;;5071854;28;20068;-70
2022/05/12 07:53:32;;;;;;;6.47;2.00;;;19.50;80.90;;;;;;5072507;28;20184;-70
2022/05/12 07:55:57;;;;;;;5.53;1.85;;;19.20;78.20;;;;;;5072381;28;20448;-70
2022/05/12 07:58:23;;;;;;;7.82;2.40;;;19.40;79.40;;;;;;5063395;28;20104;-70
2022/05/12 08:00:49;;;;;;;4.63;1.75;;;19.50;78.10;;;;;;5069124;28;20037;-70
2022/05/12 08:03:14;;;;;;;7.30;2.05;;;19.60;78.80;;;;;;5072170;28;20047;-71
2022/05/12 08:05:40;;;;;;;4.28;1.98;;;19.70;78.20;;;;;;5071896;28;20040;-70
2022/05/12 08:08:07;;;;;;;4.45;2.17;;;19.70;75.70;;;;;;5072223;28;20043;-70
2022/05/12 08:10:34;;;;;;;5.22;1.85;;;19.90;72.30;;;;;;5071885;28;20394;-71
2022/05/12 08:13:00;;;;;;;6.00;1.80;;;19.70;69.10;;;;;;5066536;28;20508;-71
2022/05/12 08:15:26;;;;;;;6.38;1.35;;;19.90;71.20;;;;;;5061622;28;20115;-70
2022/05/12 08:17:58;;;;;;;5.93;1.90;;;19.80;67.90;;;;;;5060873;28;20540;-71
2022/05/12 08:20:25;;;;;;;6.72;2.35;;;19.60;67.10;;;;;;5060451;28;20055;-71
2022/05/12 08:22:51;;;;;;;5.22;1.90;;;19.60;67.50;;;;;;5062389;28;20046;-71
2022/05/12 08:25:17;;;;;;;3.50;1.50;;;19.70;68.20;;;;;;5061607;28;20033;-71
2022/05/12 08:27:43;;;;;;;8.73;2.38;;;19.80;70.40;;;;;;5057847;28;20126;-71
2022/05/12 08:30:12;;;;;;;5.38;1.77;;;19.80;69.70;;;;;;5051422;28;20073;-71
2022/05/12 08:32:38;;;;;;;3.85;1.25;;;19.90;69.00;;;;;;5052108;28;20072;-70
2022/05/12 08:35:04;;;;;;;4.68;1.52;;;19.90;67.50;;;;;;5056625;28;20060;-71
2022/05/12 08:37:30;;;;;;;3.47;1.30;;;20.00;66.10;;;;;;5071754;28;20037;-71
2022/05/12 08:39:56;;;;;;;6.53;1.70;;;19.90;65.70;;;;;;5071638;28;20085;-70
2022/05/12 08:42:46;;;;;;;6.25;1.73;;;20.00;66.00;;;;;;5071677;28;20421;-70
2022/05/12 08:45:14;;;;;;;4.60;1.25;;;20.10;64.60;;;;;;5065911;28;20035;-70
2022/05/12 08:47:46;;;;;;;3.08;1.20;;;20.20;63.90;;;;;;5071612;28;20029;-71
2022/05/12 08:50:23;;;;;;;4.57;1.27;;;20.10;62.20;;;;;;5071375;28;20051;-71
2022/05/12 08:52:59;;;;;;;3.33;1.20;;;20.00;61.30;;;;;;5071740;28;20404;-70
2022/05/12 08:56:01;;;;;;;6.57;1.60;;;20.20;64.20;;;;;;5071245;28;20048;-70
2022/05/12 08:58:39;;;;;;;2.58;1.10;;;19.90;64.00;;;;;;5049093;28;20033;-70
2022/05/12 09:01:36;;;;;;;4.35;1.20;;;20.10;64.70;;;;;;5065108;28;20121;-68
2022/05/12 09:04:17;;;;;;;4.82;1.30;;;20.10;63.60;;;;;;5075849;28;20056;-69
2022/05/12 09:06:55;;;;;;;4.90;1.60;;;20.40;63.90;;;;;;5093517;22;20439;-72
2022/05/12 09:09:31;;;;;;;3.35;1.10;;;20.40;61.20;;;;;;5052738;28;20395;-72
2022/05/12 09:12:07;;;;;;;9.45;1.77;;;20.40;61.00;;;;;;5054233;28;20041;-73
2022/05/12 09:14:32;;;;;;;5.22;1.23;;;20.50;60.50;;;;;;5055254;28;20041;-73
2022/05/12 09:16:59;;;;;;;4.72;1.30;;;20.20;62.30;;;;;;5053475;28;20052;-73
2022/05/12 09:19:27;;;;;;;5.10;1.60;;;20.40;63.90;;;;;;5055354;28;20051;-73
2022/05/12 09:21:55;;;;;;;2.20;0.90;;;20.20;61.70;;;;;;5054861;28;20512;-72
2022/05/12 09:24:20;;;;;;;5.75;1.33;;;20.10;59.90;;;;;;5055310;28;20051;-73
2022/05/12 09:26:49;;;;;;;7.45;1.30;;;20.10;58.90;;;;;;5053522;28;20498;-71
2022/05/12 09:29:27;;;;;;;3.53;0.90;;;19.90;59.10;;;;;;5056879;28;20128;-73
2022/05/12 09:32:02;;;;;;;4.05;0.93;;;19.90;60.20;;;;;;5067574;28;20087;-73
2022/05/12 09:34:39;;;;;;;6.10;1.40;;;19.20;59.70;;;;;;5036178;28;20098;-72
2022/05/12 09:37:14;;;;;;;2.53;1.00;;;19.30;62.50;;;;;;5045122;28;20040;-72
2022/05/12 09:39:45;;;;;;;5.10;1.40;;;19.50;61.60;;;;;;5066452;28;20040;-72
2022/05/12 09:42:39;;;;;;;4.45;1.15;;;19.20;61.90;;;;;;5074757;28;20075;-72
2022/05/12 09:45:21;;;;;;;3.72;0.95;;;19.40;59.50;;;;;;5071898;28;20056;-72
2022/05/12 09:47:47;;;;;;;5.40;1.05;;;19.40;59.60;;;;;;5074604;28;20045;-72
2022/05/12 09:50:21;;;;;;;4.00;1.17;;;19.50;58.70;;;;;;5074322;28;20047;-72
2022/05/12 09:52:59;;;;;;;5.90;2.30;;;19.60;60.20;;;;;;5073780;28;20529;-72
2022/05/12 09:55:30;;;;;;;5.35;1.45;;;19.70;60.60;;;;;;5074813;28;20042;-72
2022/05/12 09:58:25;;;;;;;5.05;1.65;;;19.80;61.40;;;;;;5074514;28;20094;-71
2022/05/12 10:01:12;;;;;;;2.45;0.90;;;19.50;59.40;;;;;;5074034;28;20060;-71
2022/05/12 10:09:18;;;;;;;2.80;1.45;;;18.80;62.60;;;;;;5074622;28;19920;-71
2022/05/12 10:12:02;;;;;;;4.15;1.20;;;19.20;62.80;;;;;;5074286;28;20041;-71
2022/05/12 10:15:00;;;;;;;5.32;1.17;;;19.30;62.10;;;;;;5074242;28;20112;-71
2022/05/12 10:17:37;;;;;;;3.55;0.95;;;19.40;60.70;;;;;;5074207;28;20032;-71
2022/05/12 10:20:08;;;;;;;6.28;1.50;;;19.20;59.60;;;;;;5041488;28;20597;-72
2022/05/12 10:22:59;;;;;;;5.35;1.50;;;19.20;59.20;;;;;;5042873;28;20060;-72
2022/05/12 10:25:56;;;;;;;4.15;1.20;;;19.20;61.20;;;;;;5047137;28;20053;-73
2022/05/12 10:28:46;;;;;;;3.97;1.30;;;19.50;62.40;;;;;;5054141;28;20498;-73
2022/05/12 10:31:26;;;;;;;3.60;0.98;;;19.70;60.10;;;;;;5053707;28;20048;-72
2022/05/12 10:34:01;;;;;;;6.45;0.98;;;19.60;57.90;;;;;;5053985;28;20045;-72
2022/05/12 10:37:04;;;;;;;3.72;1.48;;;19.50;59.50;;;;;;5054067;28;20442;-71
2022/05/12 10:40:23;;;;;;;4.83;1.80;;;19.30;56.70;;;;;;5053934;28;20110;-71
2022/05/12 10:43:17;;;;;;;5.97;2.08;;;19.60;60.80;;;;;;4972641;28;20058;-71
2022/05/12 10:46:11;;;;;;;3.63;0.98;;;19.40;55.00;;;;;;5053822;28;20107;-71
2022/05/12 10:49:03;;;;;;;4.10;0.80;;;19.30;55.40;;;;;;5053653;28;20032;-71
2022/05/12 10:52:02;;;;;;;4.35;1.52;;;19.20;54.60;;;;;;5053452;28;20052;-70
2022/05/12 10:54:33;;;;;;;4.90;1.25;;;19.40;55.90;;;;;;5053451;28;20450;-71
2022/05/12 10:57:16;;;;;;;7.28;1.38;;;19.10;57.00;;;;;;5052076;28;20147;-71
2022/05/12 11:00:17;;;;;;;4.70;1.00;;;19.10;58.80;;;;;;5053627;28;20033;-71
2022/05/12 11:02:47;;;;;;;6.18;0.98;;;19.00;56.10;;;;;;5053515;28;20045;-71
2022/05/12 11:05:23;;;;;;;4.90;1.13;;;18.90;57.90;;;;;;5052082;28;20049;-71
2022/05/12 11:08:02;;;;;;;4.65;0.88;;;19.00;59.10;;;;;;5053243;28;20051;-71
2022/05/12 11:10:34;;;;;;;2.33;1.00;;;19.00;57.70;;;;;;5051915;28;20037;-71
2022/05/12 11:13:07;;;;;;;5.55;1.23;;;19.00;56.80;;;;;;5053202;28;20514;-71
2022/05/12 11:16:03;;;;;;;4.68;1.00;;;18.90;58.70;;;;;;5053156;28;20402;-71
2022/05/12 11:18:59;;;;;;;3.60;0.82;;;18.70;56.70;;;;;;5051879;28;20044;-71
2022/05/12 11:21:29;;;;;;;1.75;1.00;;;19.00;57.30;;;;;;5051636;28;20055;-71
2022/05/12 11:24:10;;;;;;;4.32;0.88;;;19.20;59.40;;;;;;5052428;28;20040;-72
2022/05/12 11:27:04;;;;;;;4.32;1.05;;;19.20;56.70;;;;;;5051619;28;20133;-72
2022/05/12 11:29:43;;;;;;;;;;;19.40;60.40;;;;;;5053405;28;20044;-71
2022/05/12 11:32:24;;;;;;;2.75;0.98;;;19.60;60.00;;;;;;5052444;28;19952;-71
2022/05/12 11:34:54;;;;;;;4.63;0.77;;;19.50;57.70;;;;;;5051569;28;20513;-71
2022/05/12 11:37:34;;;;;;;2.95;0.77;;;19.50;56.70;;;;;;5051636;28;20464;-71
2022/05/12 11:40:09;;;;;;;8.55;1.10;;;19.40;57.30;;;;;;5052413;28;20423;-71
2022/05/12 11:45:47;;;;;;;4.90;0.95;;;19.40;55.90;;;;;;5052170;28;20510;-71
2022/05/12 11:48:15;;;;;;;3.70;1.05;;;19.40;57.50;;;;;;5052501;28;20037;-71
2022/05/12 11:50:51;;;;;;;4.43;1.33;;;19.30;57.80;;;;;;5052148;28;20410;-71
2022/05/12 11:53:24;;;;;;;2.78;0.73;;;19.30;56.90;;;;;;5052301;28;20064;-71
2022/05/12 11:56:07;;;;;;;3.47;0.98;;;19.10;56.10;;;;;;5052417;28;20045;-71
2022/05/12 11:58:47;;;;;;;4.03;0.88;;;19.00;57.50;;;;;;5052056;28;20456;-71
2022/05/12 12:01:14;;;;;;;3.63;0.95;;;19.20;58.70;;;;;;5052072;28;20040;-71
2022/05/12 12:03:50;;;;;;;3.58;1.05;;;19.30;57.40;;;;;;5034510;28;20044;-71
2022/05/12 12:06:38;;;;;;;4.07;0.68;;;19.40;57.00;;;;;;5050914;28;20041;-71
2022/05/12 12:09:25;;;;;;;3.72;0.90;;;19.50;56.20;;;;;;5052251;28;20072;-72
2022/05/12 12:11:51;;;;;;;5.90;1.60;;;19.40;56.90;;;;;;5051823;28;20041;-70
2022/05/12 12:14:43;;;;;;;2.38;1.00;;;19.50;55.70;;;;;;5051920;28;20049;-72
2022/05/12 12:17:33;;;;;;;1.85;0.75;;;19.60;56.00;;;;;;5052023;28;20407;-71
2022/05/12 12:20:05;;;;;;;4.30;1.00;;;19.30;55.30;;;;;;5050372;28;20037;-71
2022/05/12 12:22:35;;;;;;;4.22;1.15;;;19.00;56.50;;;;;;5034326;28;20033;-71
2022/05/12 12:25:09;;;;;;;3.38;0.85;;;18.90;57.10;;;;;;5052015;28;20124;-71
2022/05/12 12:27:44;;;;;;;3.00;0.80;;;19.10;58.20;;;;;;5051811;28;20052;-71
2022/05/12 12:30:31;;;;;;;3.15;1.15;;;19.20;57.30;;;;;;5051513;28;20037;-71
2022/05/12 12:33:17;;;;;;;3.33;1.10;;;18.80;54.00;;;;;;5051892;28;20032;-71
2022/05/12 12:36:04;;;;;;;3.25;0.77;;;18.70;53.10;;;;;;5051712;28;20072;-71
2022/05/12 12:38:44;;;;;;;3.25;0.90;;;18.50;52.90;;;;;;5050557;28;20073;-71
2022/05/12 12:41:28;;;;;;;3.17;0.93;;;18.40;54.80;;;;;;5049980;28;20049;-71
2022/05/12 12:44:01;;;;;;;;;;;18.50;57.40;;;;;;5052177;28;20457;-71
2022/05/12 12:46:35;;;;;;;4.45;1.23;;;18.50;59.70;;;;;;5050215;28;19916;-71
2022/05/12 12:49:28;;;;;;;5.78;1.10;;;18.50;57.40;;;;;;5050358;28;20059;-71
2022/05/12 12:52:03;;;;;;;5.68;1.30;;;18.40;58.20;;;;;;5048781;28;20057;-71
2022/05/12 12:57:18;;;;;;;3.33;1.35;;;18.20;59.60;;;;;;5051459;28;20045;-71
2022/05/12 12:59:56;;;;;;;2.80;1.35;;;18.40;60.30;;;;;;5051346;28;20467;-71
2022/05/12 13:02:43;;;;;;;3.70;1.42;;;18.40;57.60;;;;;;5051606;28;20041;-71
2022/05/12 13:05:18;;;;;;;3.67;1.30;;;18.20;58.20;;;;;;5051597;28;20121;-71
2022/05/12 13:07:57;;;;;;;5.57;1.17;;;18.30;58.20;;;;;;5049975;28;20041;-71
2022/05/12 13:10:23;;;;;;;4.95;1.45;;;18.50;59.40;;;;;;5051024;28;20510;-71
2022/05/12 13:12:57;;;;;;;4.85;1.65;;;18.50;60.30;;;;;;5051463;28;20033;-71
2022/05/12 13:15:23;;;;;;;3.22;0.88;;;18.50;60.10;;;;;;5051335;28;20487;-70
2022/05/12 13:17:54;;;;;;;7.00;1.50;;;18.50;60.70;;;;;;5051284;28;20033;-70
2022/05/12 13:20:23;;;;;;;5.07;1.50;;;19.00;57.80;;;;;;5051094;28;20052;-70
2022/05/12 13:23:07;;;;;;;7.72;1.38;;;18.90;56.00;;;;;;5044024;28;20147;-70
2022/05/12 13:25:37;;;;;;;4.22;1.00;;;18.90;57.20;;;;;;5040642;28;20095;-69
2022/05/12 13:28:06;;;;;;;3.13;0.90;;;18.70;54.20;;;;;;5046753;28;20033;-69
2022/05/12 13:30:41;;;;;;;4.07;1.30;;;18.50;54.60;;;;;;5048697;28;20049;-71